Time;durP1;ratioP1;P1;durP2;ratioP2;P2;SDS_P1;SDS_P2;PMS_P1;PMS_P2;Temp;Humidity;BMP_temperature;BMP_pressure;BME280_temperature;BME280_humidity;BME280_pressure;Samples;Min_cycle;Max_cycle;Signal;HPM_P1;HPM_P2
2022/05/06 00:02:22;;;;;;;6.03;2.38;;;14.80;99.90;;;;;;5094799;28;19941;-88
2022/05/06 00:04:48;;;;;;;;;;;14.80;99.90;;;;;;5096240;28;20065;-88
2022/05/06 00:07:14;;;;;;;3.67;2.03;;;14.80;99.90;;;;;;5095346;28;20261;-89
2022/05/06 00:09:40;;;;;;;;;;;14.80;99.90;;;;;;5096168;28;20028;-88
2022/05/06 00:12:06;;;;;;;6.88;2.40;;;14.80;99.90;;;;;;5095966;28;19943;-88
2022/05/06 00:14:34;;;;;;;5.22;2.20;;;14.80;99.90;;;;;;5095380;28;20542;-88
2022/05/06 00:17:01;;;;;;;6.60;2.85;;;14.80;99.90;;;;;;5095827;28;20449;-87
2022/05/06 00:19:26;;;;;;;6.43;2.20;;;14.80;99.90;;;;;;5094464;28;20110;-89
2022/05/06 00:21:52;;;;;;;;;;;14.90;99.90;;;;;;5095983;28;20056;-89
2022/05/06 00:24:18;;;;;;;6.50;1.88;;;14.90;99.90;;;;;;5093726;28;19908;-88
2022/05/06 00:26:43;;;;;;;;;;;14.90;99.90;;;;;;5093746;28;20046;-89
2022/05/06 00:29:09;;;;;;;2.90;2.03;;;14.90;99.90;;;;;;5103033;27;20402;-88
2022/05/06 00:31:34;;;;;;;;;;;14.80;99.90;;;;;;5115979;27;20035;-88
2022/05/06 00:34:00;;;;;;;3.33;1.90;;;14.80;99.90;;;;;;5133744;27;19970;-89
2022/05/06 00:36:26;;;;;;;;;;;14.70;99.90;;;;;;5116304;27;20103;-89
2022/05/06 00:38:51;;;;;;;8.43;2.13;;;14.60;99.90;;;;;;5133994;27;19999;-86
2022/05/06 00:41:18;;;;;;;;;;;14.50;99.90;;;;;;5115263;27;20057;-86
2022/05/06 00:43:43;;;;;;;3.67;2.00;;;14.50;99.90;;;;;;5114450;27;19986;-86
2022/05/06 00:46:14;;;;;;;;;;;14.40;99.90;;;;;;5115535;27;20443;-86
2022/05/06 00:48:43;;;;;;;4.35;1.90;;;14.40;99.90;;;;;;5132712;27;19915;-86
2022/05/06 00:51:10;;;;;;;3.65;2.17;;;14.40;99.90;;;;;;5133708;27;20039;-85
2022/05/06 00:53:37;;;;;;;4.07;2.35;;;14.40;99.90;;;;;;5118492;27;20030;-89
2022/05/06 00:56:04;;;;;;;3.40;2.00;;;14.50;99.90;;;;;;5117259;27;20023;-89
2022/05/06 00:58:32;;;;;;;3.75;2.30;;;14.50;99.90;;;;;;5114683;27;20034;-90
2022/05/06 01:00:58;;;;;;;4.57;2.60;;;14.50;99.90;;;;;;5112967;28;20054;-90
2022/05/06 01:03:24;;;;;;;;;;;14.60;99.90;;;;;;5112756;28;20023;-90
2022/05/06 01:05:50;;;;;;;3.53;2.50;;;14.60;99.90;;;;;;5094842;28;20458;-90
2022/05/06 01:08:16;;;;;;;;;;;14.60;99.90;;;;;;5094929;28;20205;-90
2022/05/06 01:10:43;;;;;;;4.57;2.20;;;14.60;99.90;;;;;;5094495;28;19995;-90
2022/05/06 01:13:09;;;;;;;3.80;2.28;;;14.60;99.90;;;;;;5094871;28;20031;-90
2022/05/06 01:15:34;;;;;;;;;;;14.60;99.90;;;;;;5115671;27;20039;-91
2022/05/06 01:18:00;;;;;;;3.28;2.35;;;14.70;99.90;;;;;;5114937;27;19952;-91
2022/05/06 01:20:26;;;;;;;5.95;2.25;;;14.70;99.90;;;;;;5114892;27;20023;-91
2022/05/06 01:22:59;;;;;;;7.43;2.47;;;14.90;99.90;;;;;;5114917;27;20058;-90
2022/05/06 01:25:26;;;;;;;4.90;2.25;;;15.00;99.90;;;;;;5114765;27;20071;-91
2022/05/06 01:28:13;;;;;;;5.65;2.22;;;15.00;99.90;;;;;;5114844;27;20019;-91
2022/05/06 01:30:44;;;;;;;7.97;2.33;;;15.10;99.90;;;;;;5129323;27;20019;-91
2022/05/06 01:33:12;;;;;;;2.53;2.03;;;15.10;99.90;;;;;;5132775;27;20114;-90
2022/05/06 01:35:47;;;;;;;4.28;1.98;;;15.10;99.90;;;;;;5114569;27;20023;-90
2022/05/06 01:38:24;;;;;;;7.03;2.67;;;15.20;99.90;;;;;;5109028;28;20047;-91
2022/05/06 01:40:52;;;;;;;;;;;15.20;99.90;;;;;;5107020;27;20298;-90
2022/05/06 01:43:21;;;;;;;3.83;2.33;;;15.10;99.90;;;;;;5095409;27;19927;-89
2022/05/06 01:45:48;;;;;;;5.53;2.63;;;15.10;99.90;;;;;;5090251;27;20050;-90
2022/05/06 01:48:19;;;;;;;5.07;1.88;;;15.10;99.90;;;;;;5105579;27;20035;-90
2022/05/06 01:50:47;;;;;;;6.00;2.65;;;15.10;99.90;;;;;;5104312;27;20050;-89
2022/05/06 01:53:16;;;;;;;3.83;2.05;;;15.00;99.90;;;;;;5103377;27;20170;-90
2022/05/06 01:55:42;;;;;;;4.15;2.38;;;15.00;99.90;;;;;;5107152;27;20127;-91
2022/05/06 01:58:08;;;;;;;3.30;2.25;;;15.00;99.90;;;;;;5103980;27;20084;-90
2022/05/06 02:00:36;;;;;;;;;;;15.00;99.90;;;;;;5104916;27;20040;-90
2022/05/06 02:03:02;;;;;;;4.18;2.55;;;15.10;99.90;;;;;;5109897;27;19911;-90
2022/05/06 02:05:28;;;;;;;5.88;2.17;;;15.00;99.90;;;;;;5105182;27;20322;-89
2022/05/06 02:07:54;;;;;;;;;;;15.00;99.90;;;;;;5097304;27;20047;-90
2022/05/06 02:10:21;;;;;;;2.58;2.05;;;15.00;99.90;;;;;;5108765;27;19920;-89
2022/05/06 02:12:47;;;;;;;7.57;3.97;;;14.90;99.90;;;;;;5104280;28;20716;-90
2022/05/06 02:15:14;;;;;;;10.90;5.90;;;14.80;99.90;;;;;;5112039;28;20403;-89
2022/05/06 02:17:41;;;;;;;12.27;5.07;;;14.80;99.90;;;;;;5100996;28;20035;-88
2022/05/06 02:20:09;;;;;;;8.35;3.78;;;14.70;99.90;;;;;;5112075;27;20127;-90
2022/05/06 02:22:36;;;;;;;5.82;3.97;;;14.70;99.90;;;;;;5104642;28;20846;-90
2022/05/06 02:25:09;;;;;;;6.38;2.97;;;14.70;99.90;;;;;;5091907;28;20030;-90
2022/05/06 02:27:36;;;;;;;3.35;2.17;;;14.70;99.90;;;;;;5111607;28;20036;-90
2022/05/06 02:35:30;;;;;;;11.02;3.00;;;15.20;99.90;;;;;;5111905;28;20027;-91
2022/05/06 02:37:56;;;;;;;;;;;15.80;99.90;;;;;;5094194;28;20023;-91
2022/05/06 02:40:21;;;;;;;6.95;2.65;;;16.10;99.90;;;;;;5093984;28;20331;-91
2022/05/06 02:42:47;;;;;;;;;;;16.20;99.90;;;;;;5093945;28;20484;-91
2022/05/06 02:45:13;;;;;;;4.38;2.20;;;16.20;99.90;;;;;;5093593;28;19927;-90
2022/05/06 02:47:38;;;;;;;;;;;16.10;99.90;;;;;;5093709;28;20480;-91
2022/05/06 02:50:04;;;;;;;8.82;4.57;;;15.90;99.90;;;;;;5093737;28;19903;-91
2022/05/06 02:52:30;;;;;;;9.63;4.72;;;15.70;99.90;;;;;;5094091;28;20023;-90
2022/05/06 02:54:56;;;;;;;;;;;15.50;99.90;;;;;;5094377;28;20035;-90
2022/05/06 02:57:22;;;;;;;6.85;4.35;;;15.30;99.90;;;;;;5111808;28;20305;-91
2022/05/06 02:59:47;;;;;;;;;;;15.10;99.90;;;;;;5093702;28;20027;-90
2022/05/06 03:02:13;;;;;;;5.70;3.50;;;15.10;99.90;;;;;;5093272;28;19915;-90
2022/05/06 03:04:38;;;;;;;;;;;15.00;99.90;;;;;;5094094;28;20019;-90
2022/05/06 03:07:06;;;;;;;5.47;2.63;;;14.90;99.90;;;;;;5093830;28;20388;-90
2022/05/06 03:09:33;;;;;;;4.35;2.55;;;14.80;99.90;;;;;;5092113;28;20032;-91
2022/05/06 03:11:59;;;;;;;4.90;2.80;;;14.70;99.90;;;;;;5091234;28;20065;-90
2022/05/06 03:14:25;;;;;;;;;;;14.60;99.90;;;;;;5094484;28;20068;-91
2022/05/06 03:16:50;;;;;;;7.20;2.95;;;14.50;99.90;;;;;;5093887;28;20002;-90
2022/05/06 03:19:16;;;;;;;;;;;14.40;99.90;;;;;;5093968;28;20514;-90
2022/05/06 03:21:45;;;;;;;4.80;2.33;;;14.40;99.90;;;;;;5097091;28;19956;-90
2022/05/06 03:24:11;;;;;;;10.50;3.05;;;14.40;99.90;;;;;;5096574;28;20052;-90
2022/05/06 03:26:37;;;;;;;;;;;14.40;99.90;;;;;;5096801;28;20127;-91
2022/05/06 03:29:03;;;;;;;14.18;2.75;;;14.40;99.90;;;;;;5096804;28;19904;-90
2022/05/06 03:31:29;;;;;;;4.68;2.70;;;14.30;99.90;;;;;;5096740;28;20035;-90
2022/05/06 03:33:54;;;;;;;;;;;14.30;99.90;;;;;;5097601;28;20034;-90
2022/05/06 03:36:24;;;;;;;6.70;3.38;;;14.30;99.90;;;;;;5098919;28;20322;-90
2022/05/06 03:38:50;;;;;;;5.10;3.22;;;14.30;99.90;;;;;;5101126;28;20024;-90
2022/05/06 03:41:16;;;;;;;;;;;14.30;99.90;;;;;;5105646;28;20480;-90
2022/05/06 03:43:41;;;;;;;5.82;3.28;;;14.30;99.90;;;;;;5104886;28;19908;-90
2022/05/06 03:46:07;;;;;;;;;;;14.30;99.90;;;;;;5105902;28;20164;-89
2022/05/06 03:48:35;;;;;;;6.78;2.90;;;14.40;99.90;;;;;;5117514;28;20276;-91
2022/05/06 03:53:44;;;;;;;6.00;2.88;;;14.40;99.90;;;;;;5120880;28;20149;-91
2022/05/06 03:56:10;;;;;;;;;;;14.40;99.90;;;;;;5102043;28;20078;-91
2022/05/06 03:58:36;;;;;;;4.10;3.00;;;14.50;99.90;;;;;;5101442;28;19907;-90
2022/05/06 04:01:03;;;;;;;;;;;14.50;99.90;;;;;;5099378;28;20127;-90
2022/05/06 04:03:29;;;;;;;4.63;3.25;;;14.50;99.90;;;;;;5096364;28;20300;-90
2022/05/06 04:05:54;;;;;;;;;;;14.50;99.90;;;;;;5100802;28;20024;-90
2022/05/06 04:08:20;;;;;;;6.10;2.90;;;14.50;99.90;;;;;;5095622;28;19920;-91
2022/05/06 04:10:45;;;;;;;5.93;3.65;;;14.60;99.90;;;;;;5096266;28;20130;-90
2022/05/06 04:13:11;;;;;;;;;;;14.60;99.90;;;;;;5096043;28;20036;-90
2022/05/06 04:15:38;;;;;;;7.45;2.95;;;14.60;99.90;;;;;;5095378;28;19911;-90
2022/05/06 04:18:04;;;;;;;6.43;3.22;;;14.70;99.90;;;;;;5096037;28;20059;-89
2022/05/06 04:23:29;;;;;;;4.57;2.75;;;14.90;99.90;;;;;;5113861;28;20609;-90
2022/05/06 04:26:00;;;;;;;4.53;3.55;;;15.00;99.90;;;;;;5095955;28;20039;-90
2022/05/06 04:28:30;;;;;;;5.80;3.08;;;15.10;99.90;;;;;;5095913;28;20036;-91
2022/05/06 04:30:56;;;;;;;6.00;3.33;;;15.30;99.90;;;;;;5092449;28;20016;-90
2022/05/06 04:33:22;;;;;;;;;;;15.40;99.90;;;;;;5095941;28;20024;-90
2022/05/06 04:35:48;;;;;;;5.30;2.70;;;15.50;99.90;;;;;;5095561;28;20014;-91
2022/05/06 04:38:14;;;;;;;9.38;3.47;;;15.70;99.90;;;;;;5095680;28;20135;-91
2022/05/06 04:40:43;;;;;;;;;;;15.90;99.90;;;;;;5118863;28;20036;-91
2022/05/06 04:43:10;;;;;;;5.93;2.75;;;15.90;99.90;;;;;;5096192;28;19909;-90
2022/05/06 04:45:43;;;;;;;5.50;3.25;;;16.00;99.90;;;;;;5097443;28;20081;-90
2022/05/06 04:48:11;;;;;;;5.93;2.88;;;16.10;99.90;;;;;;5095535;28;20027;-91
2022/05/06 04:50:40;;;;;;;5.95;3.10;;;16.20;99.90;;;;;;5095835;28;20027;-90
2022/05/06 04:53:07;;;;;;;5.32;2.95;;;16.30;99.90;;;;;;5114032;28;20099;-91
2022/05/06 04:55:34;;;;;;;12.07;3.42;;;16.40;99.90;;;;;;5095122;28;20629;-90
2022/05/06 04:57:59;;;;;;;12.07;2.85;;;16.50;99.90;;;;;;5095152;28;20019;-90
2022/05/06 05:00:25;;;;;;;7.03;3.63;;;16.50;99.90;;;;;;5094771;28;20144;-91
2022/05/06 05:02:50;;;;;;;;;;;16.60;99.90;;;;;;5095483;28;20051;-92
2022/05/06 05:05:16;;;;;;;5.22;3.10;;;16.70;99.90;;;;;;5094798;28;20289;-91
2022/05/06 05:07:42;;;;;;;5.38;3.30;;;16.80;99.90;;;;;;5095206;28;20613;-90
2022/05/06 05:10:08;;;;;;;7.80;2.80;;;16.80;99.90;;;;;;5094935;28;20076;-90
2022/05/06 05:12:35;;;;;;;6.47;3.08;;;16.80;99.90;;;;;;5095330;28;20111;-90
2022/05/06 05:15:01;;;;;;;4.68;3.00;;;17.00;99.90;;;;;;5095417;28;20032;-91
2022/05/06 05:17:27;;;;;;;5.68;3.10;;;17.00;99.90;;;;;;5095040;28;20110;-90
2022/05/06 05:19:53;;;;;;;9.68;3.22;;;17.10;99.90;;;;;;5094891;28;20169;-90
2022/05/06 05:22:19;;;;;;;4.25;2.58;;;17.20;99.70;;;;;;5112866;28;20098;-90
2022/05/06 05:24:45;;;;;;;9.65;3.30;;;17.20;99.80;;;;;;5095060;28;20019;-90
2022/05/06 05:27:11;;;;;;;11.93;3.20;;;17.30;99.90;;;;;;5094867;28;20096;-90
2022/05/06 05:29:36;;;;;;;8.23;2.75;;;17.40;99.30;;;;;;5094704;28;20649;-90
2022/05/06 05:32:02;;;;;;;11.60;2.65;;;17.40;99.60;;;;;;5094947;28;20024;-90
2022/05/06 05:34:28;;;;;;;4.18;2.97;;;17.50;99.00;;;;;;5094902;28;20027;-89
2022/05/06 05:36:54;;;;;;;14.88;3.05;;;17.60;99.20;;;;;;5093117;28;20049;-91
2022/05/06 05:39:19;;;;;;;5.32;2.67;;;17.60;98.20;;;;;;5094106;28;20651;-91
2022/05/06 05:41:45;;;;;;;4.88;3.03;;;17.70;97.40;;;;;;5094419;28;20118;-90
2022/05/06 05:49:39;;;;;;;5.90;3.20;;;17.80;97.70;;;;;;5111979;28;20515;-91
2022/05/06 05:52:05;;;;;;;9.88;2.83;;;17.90;97.00;;;;;;5093759;28;20023;-91
2022/05/06 05:54:31;;;;;;;7.05;2.72;;;17.90;96.90;;;;;;5091371;28;20039;-90
2022/05/06 05:56:56;;;;;;;3.78;2.80;;;17.90;96.90;;;;;;5093140;28;20608;-91
2022/05/06 05:59:23;;;;;;;5.32;2.83;;;18.00;96.70;;;;;;5093819;28;20029;-91
2022/05/06 06:01:49;;;;;;;9.95;2.95;;;18.00;96.10;;;;;;5112488;28;20035;-91
2022/05/06 06:04:15;;;;;;;16.17;3.78;;;18.10;96.60;;;;;;5094257;28;20030;-92
2022/05/06 06:06:41;;;;;;;3.97;2.50;;;18.10;96.80;;;;;;5093829;28;20031;-91
2022/05/06 06:09:08;;;;;;;6.55;2.45;;;18.10;96.20;;;;;;5093635;28;20022;-92
2022/05/06 06:11:35;;;;;;;8.20;2.72;;;18.10;96.70;;;;;;5093730;28;20030;-90
2022/05/06 06:14:01;;;;;;;7.10;3.22;;;18.10;96.80;;;;;;5094185;28;20027;-91
2022/05/06 06:16:27;;;;;;;5.00;3.15;;;18.10;96.80;;;;;;5094282;28;20078;-90
2022/05/06 06:18:52;;;;;;;6.68;2.70;;;18.10;97.00;;;;;;5095290;28;20059;-91
2022/05/06 06:21:18;;;;;;;4.78;2.70;;;18.00;97.60;;;;;;5093911;28;20061;-88
2022/05/06 06:23:44;;;;;;;11.50;2.80;;;18.00;98.70;;;;;;5094974;28;20027;-91
2022/05/06 06:26:10;;;;;;;5.63;2.83;;;18.10;98.40;;;;;;5093780;28;20111;-91
2022/05/06 06:28:35;;;;;;;5.00;3.17;;;18.10;97.80;;;;;;5093663;28;20043;-92
2022/05/06 06:31:01;;;;;;;5.63;2.63;;;18.10;98.10;;;;;;5093600;28;20027;-91
2022/05/06 06:33:27;;;;;;;3.50;2.88;;;18.10;98.70;;;;;;5093280;28;20027;-91
2022/05/06 06:35:52;;;;;;;5.70;2.03;;;18.20;98.70;;;;;;5111767;28;20654;-90
2022/05/06 06:38:18;;;;;;;5.47;2.55;;;18.30;98.70;;;;;;5093572;28;20027;-90
2022/05/06 06:40:44;;;;;;;3.72;2.65;;;18.40;98.70;;;;;;5094126;28;20057;-91
2022/05/06 06:43:09;;;;;;;9.05;2.78;;;18.50;98.20;;;;;;5093372;28;20484;-91
2022/05/06 06:45:37;;;;;;;4.85;3.22;;;18.60;97.00;;;;;;5093335;28;20019;-90
2022/05/06 06:48:04;;;;;;;5.03;2.35;;;18.60;97.70;;;;;;5093573;28;20032;-91
2022/05/06 06:50:29;;;;;;;3.67;2.50;;;18.70;97.50;;;;;;5093339;28;20035;-90
2022/05/06 06:52:55;;;;;;;9.95;2.75;;;18.70;95.90;;;;;;5093168;28;20023;-91
2022/05/06 06:55:21;;;;;;;3.92;2.53;;;18.70;97.20;;;;;;5095611;28;20015;-90
2022/05/06 06:57:47;;;;;;;6.65;2.78;;;18.60;96.20;;;;;;5115737;28;20024;-90
2022/05/06 07:00:13;;;;;;;5.35;2.75;;;18.60;96.60;;;;;;5097011;28;20019;-91
2022/05/06 07:02:42;;;;;;;4.35;2.30;;;18.60;97.20;;;;;;5097154;28;20043;-90
2022/05/06 07:05:08;;;;;;;4.32;2.25;;;18.70;96.90;;;;;;5097421;28;20030;-90
2022/05/06 07:13:03;;;;;;;4.45;2.40;;;19.30;93.60;;;;;;5115375;28;20615;-90
2022/05/06 07:15:31;;;;;;;6.63;2.65;;;19.70;92.70;;;;;;5096797;28;20019;-91
2022/05/06 07:17:57;;;;;;;9.25;2.90;;;20.10;92.00;;;;;;5097037;28;20553;-90
2022/05/06 07:20:23;;;;;;;6.10;2.80;;;20.70;85.70;;;;;;5114686;28;20434;-89
2022/05/06 07:22:49;;;;;;;6.43;2.90;;;20.70;79.20;;;;;;5097024;28;20030;-90
2022/05/06 07:25:15;;;;;;;3.50;2.70;;;20.80;77.70;;;;;;5098871;28;20028;-90
2022/05/06 07:27:40;;;;;;;17.88;2.75;;;21.10;76.40;;;;;;5096859;28;20035;-90
2022/05/06 07:30:08;;;;;;;6.85;2.75;;;21.20;71.60;;;;;;5096865;28;20488;-90
2022/05/06 07:32:33;;;;;;;9.10;3.70;;;21.00;74.80;;;;;;5096613;28;20028;-90
2022/05/06 07:34:59;;;;;;;6.75;2.95;;;21.10;74.50;;;;;;5097176;28;20028;-91
2022/05/06 07:37:25;;;;;;;5.00;3.08;;;21.10;70.70;;;;;;5096595;28;20114;-91
2022/05/06 07:39:50;;;;;;;5.82;3.15;;;20.90;72.80;;;;;;5096366;28;20024;-92
2022/05/06 07:42:16;;;;;;;7.47;2.97;;;20.90;75.00;;;;;;5096068;28;20296;-91
2022/05/06 07:44:42;;;;;;;4.47;2.83;;;20.80;75.80;;;;;;5115009;28;20048;-92
2022/05/06 07:47:08;;;;;;;11.75;2.70;;;20.70;76.60;;;;;;5114265;28;20035;-91
2022/05/06 07:49:33;;;;;;;5.28;2.90;;;20.80;76.20;;;;;;5096967;28;20553;-91
2022/05/06 07:51:59;;;;;;;6.30;2.58;;;20.50;74.70;;;;;;5095892;28;20027;-91
2022/05/06 07:54:25;;;;;;;6.90;2.88;;;20.40;75.70;;;;;;5096624;28;20016;-91
2022/05/06 07:56:50;;;;;;;10.20;3.00;;;20.50;77.90;;;;;;5096755;28;20082;-91
2022/05/06 07:59:16;;;;;;;6.88;3.17;;;20.40;80.90;;;;;;5095404;28;20495;-92
2022/05/06 08:04:36;;;;;;;9.50;2.90;;;20.50;79.50;;;;;;5114503;28;20030;-91
2022/05/06 08:07:03;;;;;;;14.75;3.03;;;20.70;76.80;;;;;;5095086;28;20165;-91
2022/05/06 08:09:29;;;;;;;6.50;2.70;;;20.70;79.80;;;;;;5095418;28;20027;-91
2022/05/06 08:11:55;;;;;;;4.55;2.47;;;20.60;80.70;;;;;;5113429;28;20041;-91
2022/05/06 08:14:21;;;;;;;7.57;2.83;;;20.90;78.70;;;;;;5095776;28;20030;-90
2022/05/06 08:16:47;;;;;;;5.43;2.92;;;21.00;76.40;;;;;;5096272;28;20024;-91
2022/05/06 08:19:13;;;;;;;5.20;2.80;;;21.20;78.80;;;;;;5095441;28;20110;-91
2022/05/06 08:21:40;;;;;;;8.60;2.88;;;21.50;72.30;;;;;;5095806;28;20084;-90
2022/05/06 08:24:06;;;;;;;5.30;2.72;;;21.30;76.40;;;;;;5095638;28;20026;-90
2022/05/06 08:26:32;;;;;;;5.95;3.72;;;21.20;75.50;;;;;;5095352;28;20067;-91
2022/05/06 08:28:58;;;;;;;6.18;2.80;;;21.20;73.50;;;;;;5095362;28;20069;-90
2022/05/06 08:31:24;;;;;;;7.30;2.50;;;20.90;74.20;;;;;;5095317;28;20024;-91
2022/05/06 08:33:50;;;;;;;8.45;2.80;;;21.00;77.80;;;;;;5095804;28;20032;-90
2022/05/06 08:36:15;;;;;;;5.95;2.75;;;21.10;80.60;;;;;;5093537;28;20035;-91
2022/05/06 08:38:42;;;;;;;7.25;2.97;;;21.40;80.40;;;;;;5093220;28;20106;-90
2022/05/06 08:41:10;;;;;;;5.47;3.08;;;21.40;76.00;;;;;;5113385;28;20096;-91
2022/05/06 08:43:37;;;;;;;6.80;3.38;;;21.40;76.10;;;;;;5094690;28;20392;-92
2022/05/06 08:51:38;;;;;;;4.65;2.85;;;21.30;75.70;;;;;;5113425;28;20278;-90
2022/05/06 08:54:04;;;;;;;5.28;3.30;;;21.20;75.50;;;;;;5113309;28;20036;-90
2022/05/06 08:56:31;;;;;;;5.65;2.78;;;21.10;77.10;;;;;;5112809;28;20329;-91
2022/05/06 08:58:57;;;;;;;7.43;3.13;;;21.20;76.80;;;;;;5094772;28;20038;-91
2022/05/06 09:01:23;;;;;;;6.97;2.72;;;21.10;78.60;;;;;;5094998;28;20105;-90
2022/05/06 09:03:49;;;;;;;4.65;2.75;;;20.90;82.60;;;;;;5095032;28;20118;-91
2022/05/06 09:06:25;;;;;;;5.90;3.40;;;20.80;85.40;;;;;;5095180;28;20080;-91
2022/05/06 09:08:52;;;;;;;7.60;3.05;;;20.80;84.90;;;;;;5095151;28;20111;-90
2022/05/06 09:12:40;;;;;;;4.03;2.70;;;20.90;87.40;;;;;;5094677;28;20438;-91
2022/05/06 09:14:06;;;;;;;8.63;4.05;;;20.80;87.50;;;;;;5112314;28;20020;-90
2022/05/06 09:16:41;;;;;;;8.65;3.25;;;21.10;89.70;;;;;;5098263;28;20027;-90
2022/05/06 09:19:14;;;;;;;11.20;3.97;;;21.30;86.20;;;;;;5093278;28;20028;-91
2022/05/06 09:21:41;;;;;;;6.50;3.45;;;21.80;83.20;;;;;;5112700;28;20036;-92
2022/05/06 09:24:20;;;;;;;8.52;3.35;;;21.90;80.40;;;;;;5095028;28;20028;-92
2022/05/06 09:26:58;;;;;;;8.05;3.67;;;22.00;78.20;;;;;;5094501;28;20492;-91
2022/05/06 09:29:33;;;;;;;8.70;2.95;;;22.10;74.40;;;;;;5094465;28;20122;-90
2022/05/06 09:32:21;;;;;;;11.25;3.40;;;22.10;75.60;;;;;;5094346;28;20656;-90
2022/05/06 09:34:54;;;;;;;7.95;2.72;;;22.60;75.00;;;;;;5094148;28;20147;-90
2022/05/06 09:37:42;;;;;;;6.65;2.75;;;23.00;69.90;;;;;;5093934;28;20042;-91
2022/05/06 09:40:08;;;;;;;7.75;2.72;;;23.20;67.30;;;;;;5094132;28;20073;-90
2022/05/06 09:42:35;;;;;;;4.50;2.60;;;23.10;63.70;;;;;;5093969;28;20020;-90
2022/05/06 09:45:01;;;;;;;5.22;2.53;;;23.10;67.30;;;;;;5094122;28;20035;-91
2022/05/06 09:47:27;;;;;;;6.90;2.58;;;23.10;64.70;;;;;;5093570;28;20430;-90
2022/05/06 09:49:53;;;;;;;5.20;2.50;;;23.20;61.70;;;;;;5094071;28;20451;-89
2022/05/06 09:52:19;;;;;;;10.65;2.75;;;23.30;62.50;;;;;;5093831;28;20031;-89
2022/05/06 09:54:46;;;;;;;4.30;2.83;;;23.30;63.00;;;;;;5094351;28;20109;-90
2022/05/06 09:57:13;;;;;;;6.63;2.63;;;23.30;62.10;;;;;;5093731;28;20028;-89
2022/05/06 09:59:39;;;;;;;6.63;2.83;;;23.20;62.00;;;;;;5094509;28;20047;-90
2022/05/06 10:02:06;;;;;;;5.13;2.55;;;23.20;61.50;;;;;;5093837;28;20043;-90
2022/05/06 10:04:33;;;;;;;4.72;2.97;;;23.10;61.90;;;;;;5093684;28;20047;-90
2022/05/06 10:07:00;;;;;;;9.88;3.08;;;23.10;62.10;;;;;;5094114;28;20035;-89
2022/05/06 10:09:29;;;;;;;9.05;2.53;;;23.10;64.40;;;;;;5094475;28;20047;-89
2022/05/06 10:11:58;;;;;;;4.38;2.58;;;23.20;62.70;;;;;;5093748;28;20102;-90
2022/05/06 10:14:25;;;;;;;8.35;3.08;;;23.10;63.20;;;;;;5093649;28;20099;-90
2022/05/06 10:16:50;;;;;;;7.20;2.85;;;23.10;63.30;;;;;;5093655;28;20408;-90
2022/05/06 10:19:26;;;;;;;3.90;2.30;;;23.10;64.90;;;;;;5111527;28;20023;-89
2022/05/06 10:21:53;;;;;;;4.75;2.60;;;23.10;64.80;;;;;;5111306;28;20024;-88
2022/05/06 10:24:20;;;;;;;6.55;3.10;;;23.10;62.60;;;;;;5093451;28;20035;-88
2022/05/06 10:26:52;;;;;;;8.77;2.45;;;23.10;62.50;;;;;;5093655;28;20023;-89
2022/05/06 10:32:50;;;;;;;4.65;1.98;;;23.10;62.10;;;;;;5116215;28;20062;-89
2022/05/06 10:35:17;;;;;;;16.15;2.30;;;23.30;60.10;;;;;;5097501;28;20024;-91
2022/05/06 10:37:45;;;;;;;3.55;2.00;;;23.30;58.30;;;;;;5115846;28;20023;-90
2022/05/06 10:40:22;;;;;;;6.47;1.70;;;23.50;57.80;;;;;;5115291;28;20065;-90
2022/05/06 10:42:48;;;;;;;7.45;2.17;;;23.60;56.40;;;;;;5097533;28;20031;-89
2022/05/06 10:45:32;;;;;;;4.28;2.35;;;23.60;55.10;;;;;;5097050;28;20491;-89
2022/05/06 10:47:58;;;;;;;4.55;2.05;;;23.70;55.40;;;;;;5097506;28;20031;-89
2022/05/06 10:50:25;;;;;;;3.25;1.77;;;23.70;54.90;;;;;;5115334;28;20032;-90
2022/05/06 10:52:52;;;;;;;4.43;1.73;;;23.60;53.90;;;;;;5097252;28;20099;-91
2022/05/06 10:55:19;;;;;;;4.85;2.00;;;23.80;56.00;;;;;;5097530;28;20032;-90
2022/05/06 10:57:48;;;;;;;3.72;1.85;;;24.00;54.80;;;;;;5096962;28;20027;-91
2022/05/06 11:00:14;;;;;;;3.47;1.67;;;24.10;53.80;;;;;;5097570;28;20024;-90
2022/05/06 11:02:40;;;;;;;4.13;1.98;;;24.30;50.40;;;;;;5097270;28;20051;-91
2022/05/06 11:05:07;;;;;;;7.93;1.83;;;24.30;50.40;;;;;;5097230;28;20072;-91
2022/05/06 11:07:38;;;;;;;3.33;1.60;;;24.30;51.90;;;;;;5096609;28;20063;-88
2022/05/06 11:10:11;;;;;;;4.00;2.03;;;24.50;50.00;;;;;;5096007;28;20019;-88
2022/05/06 11:12:45;;;;;;;5.57;1.95;;;24.70;48.30;;;;;;5096739;28;20087;-89
2022/05/06 11:15:16;;;;;;;8.60;2.13;;;24.70;49.00;;;;;;5116075;28;20031;-89
2022/05/06 11:17:43;;;;;;;6.47;2.47;;;24.80;47.50;;;;;;5093007;28;20073;-89
2022/05/06 11:20:23;;;;;;;5.68;2.22;;;24.80;48.10;;;;;;5094599;28;20122;-89
2022/05/06 11:22:55;;;;;;;5.43;1.90;;;24.80;49.20;;;;;;5096505;28;20045;-89
2022/05/06 11:25:24;;;;;;;3.17;1.67;;;25.00;50.80;;;;;;5096146;28;20026;-88
2022/05/06 11:27:52;;;;;;;3.92;1.75;;;25.20;49.10;;;;;;5096622;28;20507;-90
2022/05/06 11:30:20;;;;;;;3.17;1.70;;;25.00;46.00;;;;;;5115116;28;20031;-89
2022/05/06 11:33:04;;;;;;;7.82;2.20;;;25.00;47.10;;;;;;5117937;28;20058;-88
2022/05/06 11:35:50;;;;;;;3.80;1.80;;;25.00;45.30;;;;;;5105281;28;20396;-88
2022/05/06 11:38:28;;;;;;;4.22;1.70;;;24.70;43.80;;;;;;5107943;28;20019;-89
2022/05/06 11:40:54;;;;;;;4.53;2.13;;;24.50;44.90;;;;;;5107455;28;20015;-88
2022/05/06 11:43:21;;;;;;;4.43;2.08;;;24.50;48.10;;;;;;5106012;28;20030;-88
2022/05/06 11:48:44;;;;;;;2.97;1.65;;;24.60;48.40;;;;;;5121987;28;20584;-88
2022/05/06 11:51:12;;;;;;;6.95;2.35;;;24.60;48.30;;;;;;5097453;28;20075;-88
2022/05/06 11:53:40;;;;;;;5.10;2.10;;;24.50;47.20;;;;;;5114380;28;20031;-87
2022/05/06 11:56:07;;;;;;;7.00;1.75;;;24.50;48.70;;;;;;5095668;28;20047;-88
2022/05/06 11:58:36;;;;;;;11.13;2.55;;;24.50;48.10;;;;;;5095751;28;20114;-88
2022/05/06 12:01:01;;;;;;;5.38;1.77;;;24.60;49.00;;;;;;5099388;28;20456;-88
2022/05/06 12:03:28;;;;;;;3.95;2.08;;;24.50;47.90;;;;;;5096066;28;20062;-88
2022/05/06 12:06:05;;;;;;;11.32;2.10;;;24.50;48.40;;;;;;5096661;28;20034;-88
2022/05/06 12:08:32;;;;;;;4.45;2.35;;;24.60;50.20;;;;;;5114648;28;20063;-88
2022/05/06 12:11:08;;;;;;;6.78;2.25;;;24.80;52.50;;;;;;5098413;28;20062;-90
2022/05/06 12:13:40;;;;;;;7.00;2.88;;;24.70;50.70;;;;;;5098819;28;20111;-88
2022/05/06 12:16:08;;;;;;;3.80;2.22;;;24.60;50.10;;;;;;5100193;28;20035;-87
2022/05/06 12:18:34;;;;;;;10.25;2.35;;;24.60;50.30;;;;;;5103374;28;20056;-89
2022/05/06 12:21:15;;;;;;;11.85;2.97;;;24.40;49.60;;;;;;5106316;28;20031;-87
2022/05/06 12:23:48;;;;;;;5.70;2.33;;;24.30;49.90;;;;;;5102916;28;20031;-87
2022/05/06 12:26:33;;;;;;;6.55;1.90;;;24.30;48.80;;;;;;5104523;28;20035;-87
2022/05/06 12:29:00;;;;;;;5.28;1.75;;;24.30;48.70;;;;;;5100423;28;20031;-88
2022/05/06 12:31:33;;;;;;;3.58;1.90;;;24.40;49.00;;;;;;5108008;27;20027;-88
2022/05/06 12:34:09;;;;;;;13.18;1.45;;;24.40;47.80;;;;;;5122317;27;20046;-87
2022/05/06 12:36:36;;;;;;;3.28;1.70;;;24.40;48.50;;;;;;5119994;27;20076;-90
2022/05/06 12:39:19;;;;;;;10.02;1.80;;;24.60;48.10;;;;;;5117786;27;20027;-88
2022/05/06 12:41:45;;;;;;;10.73;3.70;;;24.70;49.40;;;;;;5135243;27;20479;-87
2022/05/06 12:44:18;;;;;;;8.82;2.70;;;24.70;49.60;;;;;;5116245;27;20027;-87
2022/05/06 12:46:45;;;;;;;13.07;1.85;;;24.70;48.90;;;;;;5115324;27;20118;-87
2022/05/06 12:51:55;;;;;;;3.63;1.90;;;24.60;49.00;;;;;;5133725;27;20073;-87
2022/05/06 12:54:22;;;;;;;10.18;1.90;;;24.30;47.70;;;;;;5115602;27;20043;-87
2022/05/06 12:56:48;;;;;;;5.25;2.33;;;24.20;47.90;;;;;;5115191;27;20035;-87
2022/05/06 12:59:14;;;;;;;3.22;1.60;;;24.00;48.50;;;;;;5113926;27;20399;-87
2022/05/06 13:01:40;;;;;;;4.35;1.75;;;24.00;47.30;;;;;;5094309;28;20508;-87
2022/05/06 13:04:06;;;;;;;4.63;2.08;;;24.00;48.60;;;;;;5090649;28;20058;-87
2022/05/06 13:06:32;;;;;;;8.68;2.33;;;24.00;47.40;;;;;;5091839;27;20042;-88
2022/05/06 13:08:59;;;;;;;6.35;1.73;;;23.80;47.20;;;;;;5086812;28;20036;-87
2022/05/06 13:11:25;;;;;;;6.70;2.03;;;23.80;47.70;;;;;;5074578;28;20028;-87
2022/05/06 13:13:51;;;;;;;8.05;1.88;;;23.90;48.60;;;;;;5075061;28;20035;-88
2022/05/06 13:16:16;;;;;;;3.92;1.83;;;24.00;49.70;;;;;;5090377;28;20035;-87
2022/05/06 13:18:42;;;;;;;8.73;1.60;;;23.90;45.70;;;;;;5104426;27;20407;-88
2022/05/06 13:21:08;;;;;;;7.45;2.08;;;23.70;45.30;;;;;;5092434;28;20032;-88
2022/05/06 13:23:34;;;;;;;6.47;2.05;;;23.60;48.00;;;;;;5090435;28;20032;-87
2022/05/06 13:26:00;;;;;;;6.53;2.53;;;23.60;50.70;;;;;;5098863;27;20456;-87
2022/05/06 13:28:26;;;;;;;8.82;2.38;;;23.60;51.10;;;;;;5085113;28;20065;-86
2022/05/06 13:30:51;;;;;;;11.02;2.20;;;23.60;51.20;;;;;;5081502;28;20028;-87
2022/05/06 13:33:17;;;;;;;10.95;2.72;;;23.40;47.80;;;;;;5103347;27;20032;-88
2022/05/06 13:35:43;;;;;;;5.13;1.70;;;23.40;48.10;;;;;;5092962;27;20086;-87
2022/05/06 13:38:10;;;;;;;8.88;1.80;;;23.40;48.10;;;;;;5102059;27;20039;-90